createdAt,value
2018-04-08T00:01:28.751Z,15.92
2018-04-08T00:03:56.872Z,15.93
2018-04-08T00:06:24.992Z,15.95
2018-04-08T00:08:53.144Z,16.06
2018-04-08T00:11:21.327Z,16.07
2018-04-08T00:13:49.455Z,16.15
2018-04-08T00:16:17.560Z,16.13
2018-04-08T00:18:45.673Z,16.16
2018-04-08T00:21:13.805Z,16.16
2018-04-08T00:23:41.922Z,16.16
2018-04-08T00:26:10.063Z,16.12
2018-04-08T00:28:38.205Z,16.10
2018-04-08T00:31:06.331Z,16.05
2018-04-08T00:33:34.454Z,16.00
2018-04-08T00:36:02.573Z,15.91
2018-04-08T00:38:30.697Z,15.89
2018-04-08T00:40:58.845Z,15.72
2018-04-08T00:43:26.963Z,15.76
2018-04-08T00:45:55.095Z,15.71
2018-04-08T00:48:23.222Z,15.75
2018-04-08T00:50:51.338Z,15.77
2018-04-08T00:53:19.457Z,15.81
2018-04-08T00:55:47.585Z,15.84
2018-04-08T00:58:15.728Z,15.78
2018-04-08T01:00:43.837Z,15.87
2018-04-08T01:03:11.958Z,15.83
2018-04-08T01:05:40.088Z,15.87
2018-04-08T01:08:08.214Z,15.82
2018-04-08T01:10:36.324Z,15.80
2018-04-08T01:13:04.464Z,15.66
2018-04-08T01:15:32.563Z,15.71
2018-04-08T01:18:00.690Z,15.76
2018-04-08T01:20:28.793Z,15.73
2018-04-08T01:22:56.959Z,15.62
2018-04-08T01:25:25.080Z,15.51
2018-04-08T01:27:53.200Z,15.58
2018-04-08T01:30:21.328Z,15.53
2018-04-08T01:32:49.451Z,15.58
2018-04-08T01:35:17.593Z,15.44
2018-04-08T01:37:45.714Z,15.44
2018-04-08T01:40:13.834Z,15.44
2018-04-08T01:42:41.968Z,15.33
2018-04-08T01:45:10.076Z,15.28
2018-04-08T01:47:38.220Z,15.35
2018-04-08T01:50:06.354Z,15.11
2018-04-08T01:52:34.479Z,15.19
2018-04-08T01:55:02.621Z,15.24
2018-04-08T01:57:30.751Z,15.16
2018-04-08T01:59:58.877Z,15.23
2018-04-08T02:02:26.998Z,15.29
2018-04-08T02:04:55.125Z,15.30
2018-04-08T02:07:23.259Z,15.30
2018-04-08T02:09:51.402Z,15.19
2018-04-08T02:12:19.544Z,15.29
2018-04-08T02:14:47.662Z,15.16
2018-04-08T02:17:15.781Z,15.03
2018-04-08T02:19:43.931Z,15.17
2018-04-08T02:22:12.055Z,15.20
2018-04-08T02:24:40.212Z,15.15
2018-04-08T02:27:08.338Z,15.19
2018-04-08T02:29:36.456Z,15.25
2018-04-08T02:32:04.577Z,15.24
2018-04-08T02:34:32.720Z,15.20
2018-04-08T02:37:00.848Z,15.22
2018-04-08T02:39:28.961Z,15.07
2018-04-08T02:41:57.065Z,14.97
2018-04-08T02:44:25.204Z,15.06
2018-04-08T02:46:53.337Z,15.01
2018-04-08T02:49:21.450Z,14.90
2018-04-08T02:51:49.630Z,15.13
2018-04-08T02:54:17.765Z,15.11
2018-04-08T02:56:45.909Z,15.10
2018-04-08T02:59:14.134Z,15.08
2018-04-08T03:01:42.273Z,15.22
2018-04-08T03:04:10.396Z,15.14
2018-04-08T03:06:38.541Z,15.03
2018-04-08T03:09:06.667Z,15.03
2018-04-08T03:11:35.147Z,15.04
2018-04-08T03:14:03.275Z,15.05
2018-04-08T03:16:31.385Z,15.08
2018-04-08T03:18:59.510Z,15.13
2018-04-08T03:21:27.652Z,15.21
2018-04-08T03:23:55.793Z,15.18
2018-04-08T03:26:23.945Z,15.24
2018-04-08T03:28:52.078Z,15.17
2018-04-08T03:31:20.194Z,15.28
2018-04-08T03:33:48.300Z,15.20
2018-04-08T03:36:16.427Z,15.19
2018-04-08T03:38:44.569Z,15.22
2018-04-08T03:41:12.691Z,15.23
2018-04-08T03:43:40.818Z,15.25
2018-04-08T03:46:09.257Z,15.31
2018-04-08T03:48:37.373Z,15.31
2018-04-08T03:51:05.579Z,15.34
2018-04-08T03:53:33.693Z,15.33
2018-04-08T03:56:01.801Z,15.39
2018-04-08T03:58:29.939Z,15.44
2018-04-08T04:00:58.084Z,15.47
2018-04-08T04:03:26.218Z,15.46
2018-04-08T04:05:54.357Z,15.49
2018-04-08T04:08:22.469Z,15.52
2018-04-08T04:10:51.209Z,15.50
2018-04-08T04:13:19.331Z,15.51
2018-04-08T04:15:47.479Z,15.59
2018-04-08T04:21:31.400Z,15.71
2018-04-08T04:24:11.477Z,15.72
2018-04-08T04:26:39.692Z,15.85
2018-04-08T04:29:07.823Z,15.85
2018-04-08T04:31:36.230Z,15.82
2018-04-08T04:34:04.363Z,15.74
2018-04-08T04:36:32.486Z,15.72
2018-04-08T04:39:00.600Z,15.70
2018-04-08T04:41:28.983Z,15.61
2018-04-08T04:43:57.087Z,15.60
2018-04-08T04:46:25.222Z,15.61
2018-04-08T04:48:53.369Z,15.65
2018-04-08T04:51:21.495Z,15.65
2018-04-08T04:53:49.629Z,15.66
2018-04-08T04:56:17.739Z,15.66
2018-04-08T04:58:45.867Z,15.58
2018-04-08T05:01:14.002Z,15.55
2018-04-08T05:03:42.130Z,15.56
2018-04-08T05:06:10.265Z,15.60
2018-04-08T05:08:38.376Z,15.57
2018-04-08T05:11:06.500Z,15.47
2018-04-08T05:13:34.679Z,15.42
2018-04-08T05:16:02.803Z,15.40
2018-04-08T05:18:30.936Z,15.46
2018-04-08T05:20:59.057Z,15.38
2018-04-08T05:23:27.197Z,15.43
2018-04-08T05:25:55.334Z,15.46
2018-04-08T05:28:23.461Z,15.50
2018-04-08T05:30:51.610Z,15.52
2018-04-08T05:33:19.783Z,15.40
2018-04-08T05:35:47.973Z,15.39
2018-04-08T05:38:16.092Z,15.36
2018-04-08T05:40:44.219Z,15.40
2018-04-08T05:43:12.373Z,15.45
2018-04-08T05:45:40.503Z,15.29
2018-04-08T05:48:08.640Z,15.43
2018-04-08T05:50:36.784Z,15.37
2018-04-08T05:53:04.899Z,15.50
2018-04-08T05:55:33.059Z,15.70
2018-04-08T05:58:01.190Z,15.74
2018-04-08T06:00:29.304Z,15.54
2018-04-08T06:02:57.452Z,15.59
2018-04-08T06:05:25.570Z,15.52
2018-04-08T06:07:53.711Z,15.47
2018-04-08T06:10:21.838Z,15.50
2018-04-08T06:12:49.972Z,15.56
2018-04-08T06:15:18.101Z,15.59
2018-04-08T06:17:46.215Z,15.63
2018-04-08T06:20:17.848Z,15.73
2018-04-08T06:22:45.985Z,15.85
2018-04-08T06:25:14.114Z,15.97
2018-04-08T06:27:42.256Z,16.02
2018-04-08T06:30:10.373Z,16.03
2018-04-08T06:32:38.502Z,16.03
2018-04-08T06:35:06.670Z,16.02
2018-04-08T06:37:34.819Z,16.07
2018-04-08T06:40:02.976Z,16.08
2018-04-08T06:42:31.093Z,16.12
2018-04-08T06:44:59.227Z,16.17
2018-04-08T06:47:27.364Z,16.23
2018-04-08T06:49:55.479Z,16.28
2018-04-08T06:52:23.611Z,16.34
2018-04-08T06:54:51.740Z,16.40
2018-04-08T06:57:19.899Z,16.43
2018-04-08T06:59:48.031Z,16.49
2018-04-08T07:02:16.353Z,16.51
2018-04-08T07:04:44.859Z,16.55
2018-04-08T07:07:12.979Z,16.55
2018-04-08T07:09:41.129Z,16.61
2018-04-08T07:12:09.236Z,16.64
2018-04-08T07:14:37.374Z,16.65
2018-04-08T07:17:05.518Z,16.72
2018-04-08T07:19:33.655Z,16.77
2018-04-08T07:22:01.883Z,16.80
2018-04-08T07:24:30.002Z,16.85
2018-04-08T07:26:58.138Z,16.90
2018-04-08T07:29:26.264Z,16.99
2018-04-08T07:31:54.390Z,17.06
2018-04-08T07:34:22.530Z,17.16
2018-04-08T07:36:50.651Z,17.20
2018-04-08T07:39:18.818Z,17.31
2018-04-08T07:41:46.952Z,17.51
2018-04-08T07:44:15.780Z,17.60
2018-04-08T07:46:43.925Z,17.69
2018-04-08T07:49:12.220Z,17.83
2018-04-08T07:51:40.328Z,18.00
2018-04-08T07:54:08.468Z,18.13
2018-04-08T07:56:36.594Z,18.23
2018-04-08T07:59:04.747Z,18.28
2018-04-08T08:01:32.880Z,18.31
2018-04-08T08:04:01.057Z,18.39
2018-04-08T08:06:29.202Z,18.45
2018-04-08T08:08:57.315Z,18.56
2018-04-08T08:11:25.513Z,18.64
2018-04-08T08:13:53.647Z,18.63
2018-04-08T08:16:21.783Z,18.59
2018-04-08T08:18:49.901Z,18.57
2018-04-08T08:21:18.044Z,18.56
2018-04-08T08:23:46.191Z,18.55
2018-04-08T08:26:14.351Z,18.54
2018-04-08T08:28:43.014Z,18.52
2018-04-08T08:31:11.175Z,18.53
2018-04-08T08:33:43.314Z,18.56
2018-04-08T08:36:11.490Z,18.59
2018-04-08T08:38:39.638Z,18.64
2018-04-08T08:41:07.973Z,18.67
2018-04-08T08:43:36.104Z,18.65
2018-04-08T08:46:04.238Z,18.59
2018-04-08T08:48:32.367Z,18.58
2018-04-08T08:51:00.510Z,18.59
2018-04-08T08:53:32.280Z,18.59
2018-04-08T08:56:00.430Z,18.62
2018-04-08T08:58:28.561Z,18.71
2018-04-08T09:00:56.890Z,18.78
2018-04-08T09:03:25.010Z,18.91
2018-04-08T09:05:53.147Z,19.05
2018-04-08T09:08:21.312Z,19.10
2018-04-08T09:10:49.460Z,19.15
2018-04-08T09:13:17.621Z,19.19
2018-04-08T09:15:45.764Z,19.26
2018-04-08T09:18:13.911Z,19.35
2018-04-08T09:23:52.190Z,19.60
2018-04-08T09:26:20.352Z,19.63
2018-04-08T09:28:48.490Z,19.74
2018-04-08T09:31:16.598Z,19.70
2018-04-08T09:33:44.798Z,19.87
2018-04-08T09:36:12.956Z,20.04
2018-04-08T09:38:41.062Z,20.11
2018-04-08T09:41:09.219Z,20.40
2018-04-08T09:43:37.357Z,20.68
2018-04-08T09:46:05.506Z,21.15
2018-04-08T09:48:33.615Z,21.26
2018-04-08T09:51:01.741Z,21.26
2018-04-08T09:53:29.895Z,21.06
2018-04-08T09:55:58.297Z,20.97
2018-04-08T09:58:26.448Z,20.97
2018-04-08T10:01:09.212Z,20.91
2018-04-08T10:03:46.389Z,20.84
2018-04-08T10:06:14.533Z,20.91
2018-04-08T10:08:42.661Z,21.06
2018-04-08T10:11:10.804Z,21.16
2018-04-08T10:13:38.926Z,21.12
2018-04-08T10:16:07.417Z,21.05
2018-04-08T10:18:35.541Z,21.05
2018-04-08T10:21:03.658Z,21.10
2018-04-08T10:23:31.820Z,21.09
2018-04-08T10:25:59.948Z,21.09
2018-04-08T10:28:28.083Z,21.14
2018-04-08T10:30:56.214Z,21.14
2018-04-08T10:33:24.352Z,21.12
2018-04-08T10:35:52.529Z,21.09
2018-04-08T10:38:20.693Z,21.11
2018-04-08T10:40:48.927Z,21.02
2018-04-08T10:43:17.075Z,21.08
2018-04-08T10:45:45.208Z,21.13
2018-04-08T10:48:13.371Z,21.15
2018-04-08T10:50:41.516Z,21.25
2018-04-08T10:53:09.672Z,21.44
2018-04-08T10:55:37.837Z,21.59
2018-04-08T10:58:05.982Z,21.77
2018-04-08T11:00:34.160Z,21.81
2018-04-08T11:03:02.304Z,21.82
2018-04-08T11:05:30.432Z,21.79
2018-04-08T11:07:58.576Z,21.78
2018-04-08T11:10:26.730Z,21.76
2018-04-08T11:12:54.885Z,21.78
2018-04-08T11:15:22.997Z,21.77
2018-04-08T11:17:51.153Z,21.79
2018-04-08T11:20:19.292Z,21.86
2018-04-08T11:22:47.423Z,21.85
2018-04-08T11:25:15.577Z,21.95
2018-04-08T11:27:43.693Z,22.05
2018-04-08T11:30:11.856Z,22.15
2018-04-08T11:32:39.981Z,22.17
2018-04-08T11:35:08.112Z,22.15
2018-04-08T11:37:36.306Z,22.15
2018-04-08T11:40:04.427Z,22.12
2018-04-08T11:42:32.594Z,22.15
2018-04-08T11:45:00.749Z,22.15
2018-04-08T11:47:28.897Z,22.19
2018-04-08T11:49:57.040Z,22.22
2018-04-08T11:52:25.220Z,22.27
2018-04-08T11:54:53.325Z,22.26
2018-04-08T11:57:21.488Z,22.30
2018-04-08T11:59:49.616Z,22.38
2018-04-08T12:02:17.784Z,22.48
2018-04-08T12:04:45.936Z,22.51
2018-04-08T12:07:14.088Z,22.55
2018-04-08T12:09:42.223Z,22.61
2018-04-08T12:12:13.841Z,22.75
2018-04-08T12:14:41.974Z,22.90
2018-04-08T12:17:10.112Z,22.93
2018-04-08T12:19:38.269Z,22.95
2018-04-08T12:22:06.474Z,23.35
2018-04-08T12:24:34.591Z,23.31
2018-04-08T12:27:15.598Z,23.23
2018-04-08T12:29:43.728Z,23.20
2018-04-08T12:32:11.873Z,23.15
2018-04-08T12:34:43.437Z,23.07
2018-04-08T12:37:11.587Z,23.05
2018-04-08T12:39:39.736Z,23.19
2018-04-08T12:42:07.882Z,23.18
2018-04-08T12:44:36.037Z,23.20
2018-04-08T12:47:04.149Z,23.13
2018-04-08T12:49:32.291Z,23.16
2018-04-08T12:52:00.459Z,23.34
2018-04-08T12:54:28.566Z,23.58
2018-04-08T12:56:56.712Z,23.93
2018-04-08T12:59:24.839Z,23.81
2018-04-08T13:01:52.948Z,23.93
2018-04-08T13:04:21.083Z,24.13
2018-04-08T13:06:49.257Z,24.18
2018-04-08T13:09:17.394Z,24.17
2018-04-08T13:11:45.541Z,24.37
2018-04-08T13:14:13.712Z,24.37
2018-04-08T13:16:41.806Z,24.29
2018-04-08T13:19:09.953Z,24.46
2018-04-08T13:21:38.109Z,24.43
2018-04-08T13:24:06.230Z,24.38
2018-04-08T13:26:34.374Z,24.51
2018-04-08T13:29:02.503Z,24.67
2018-04-08T13:31:30.822Z,24.72
2018-04-08T13:33:59.187Z,24.30
2018-04-08T13:36:27.331Z,24.13
2018-04-08T13:38:55.459Z,24.04
2018-04-08T13:41:23.703Z,23.81
2018-04-08T13:43:51.838Z,23.65
2018-04-08T13:46:19.973Z,23.65
2018-04-08T13:48:48.127Z,23.87
2018-04-08T13:51:16.251Z,24.15
2018-04-08T13:53:44.412Z,24.41
2018-04-08T13:56:12.566Z,24.66
2018-04-08T13:58:40.693Z,24.70
2018-04-08T14:01:08.819Z,24.74
2018-04-08T14:03:36.946Z,24.67
2018-04-08T14:06:05.093Z,24.61
2018-04-08T14:08:33.227Z,24.71
2018-04-08T14:11:01.348Z,24.63
2018-04-08T14:13:29.486Z,24.49
2018-04-08T14:15:57.637Z,24.56
2018-04-08T14:18:25.788Z,24.74
2018-04-08T14:20:53.919Z,24.65
2018-04-08T14:23:22.073Z,24.58
2018-04-08T14:25:50.206Z,24.55
2018-04-08T14:28:18.363Z,24.68
2018-04-08T14:30:46.495Z,24.74
2018-04-08T14:33:14.639Z,24.83
2018-04-08T14:35:42.785Z,24.82
2018-04-08T14:38:10.930Z,24.84
2018-04-08T14:40:39.057Z,24.68
2018-04-08T14:43:07.190Z,24.70
2018-04-08T14:45:35.317Z,24.55
2018-04-08T14:48:03.437Z,24.42
2018-04-08T14:50:31.574Z,24.44
2018-04-08T14:52:59.743Z,24.55
2018-04-08T14:55:27.956Z,24.56
2018-04-08T14:57:56.077Z,24.57
2018-04-08T15:00:24.203Z,24.55
2018-04-08T15:02:52.332Z,24.56
2018-04-08T15:05:20.462Z,24.58
2018-04-08T15:07:48.611Z,24.60
2018-04-08T15:10:16.722Z,24.54
2018-04-08T15:12:44.881Z,24.50
2018-04-08T15:15:13.103Z,24.47
2018-04-08T15:17:41.213Z,24.52
2018-04-08T15:20:09.698Z,24.64
2018-04-08T15:22:37.843Z,24.64
2018-04-08T15:25:06.049Z,24.66
2018-04-08T15:27:34.188Z,24.54
2018-04-08T15:30:02.331Z,24.56
2018-04-08T15:32:30.462Z,24.55
2018-04-08T15:34:58.591Z,24.47
2018-04-08T15:37:26.723Z,24.48
2018-04-08T15:39:54.868Z,24.43
2018-04-08T15:42:23.019Z,24.37
2018-04-08T15:44:51.129Z,24.43
2018-04-08T15:47:19.258Z,24.40
2018-04-08T15:49:47.400Z,24.40
2018-04-08T15:52:15.539Z,24.38
2018-04-08T15:54:43.691Z,24.30
2018-04-08T15:57:11.804Z,24.17
2018-04-08T15:59:39.937Z,24.05
2018-04-08T16:02:08.098Z,24.05
2018-04-08T16:04:36.221Z,24.10
2018-04-08T16:07:04.362Z,24.19
2018-04-08T16:09:32.492Z,24.16
2018-04-08T16:12:00.634Z,24.12
2018-04-08T16:14:28.764Z,24.10
2018-04-08T16:16:56.921Z,24.08
2018-04-08T16:19:25.056Z,24.09
2018-04-08T16:21:53.189Z,24.05
2018-04-08T16:24:21.400Z,24.04
2018-04-08T16:26:49.523Z,24.02
2018-04-08T16:29:17.651Z,24.04
2018-04-08T16:31:45.790Z,23.99
2018-04-08T16:34:13.962Z,23.97
2018-04-08T16:36:42.149Z,23.89
2018-04-08T16:39:10.248Z,23.88
2018-04-08T16:41:38.376Z,23.88
2018-04-08T16:44:06.507Z,23.91
2018-04-08T16:46:34.652Z,23.93
2018-04-08T16:49:02.781Z,23.92
2018-04-08T16:51:31.013Z,23.94
2018-04-08T16:53:59.142Z,23.88
2018-04-08T16:56:27.286Z,23.77
2018-04-08T16:58:55.484Z,23.71
2018-04-08T17:01:23.571Z,23.77
2018-04-08T17:03:51.710Z,23.77
2018-04-08T17:06:19.874Z,23.77
2018-04-08T17:08:48.023Z,23.78
2018-04-08T17:11:16.153Z,23.72
2018-04-08T17:13:44.372Z,23.75
2018-04-08T17:16:12.450Z,23.75
2018-04-08T17:18:40.559Z,23.75
2018-04-08T17:21:11.726Z,23.67
2018-04-08T17:23:39.868Z,23.54
2018-04-08T17:26:07.991Z,23.56
2018-04-08T17:28:36.127Z,23.51
2018-04-08T17:31:07.791Z,23.42
2018-04-08T17:33:35.918Z,23.32
2018-04-08T17:36:04.058Z,23.28
2018-04-08T17:38:32.197Z,23.28
2018-04-08T17:41:00.335Z,23.27
2018-04-08T17:43:28.615Z,23.14
2018-04-08T17:45:56.767Z,23.02
2018-04-08T17:48:24.903Z,22.83
2018-04-08T17:50:53.091Z,22.78
2018-04-08T17:53:21.213Z,22.65
2018-04-08T17:55:49.368Z,22.54
2018-04-08T17:58:17.508Z,22.46
2018-04-08T18:00:45.643Z,22.38
2018-04-08T18:03:13.784Z,22.31
2018-04-08T18:05:41.923Z,22.24
2018-04-08T18:08:10.046Z,22.15
2018-04-08T18:10:38.162Z,22.05
2018-04-08T18:13:06.295Z,21.97
2018-04-08T18:15:34.432Z,21.87
2018-04-08T18:18:02.595Z,21.78
2018-04-08T18:20:30.682Z,21.74
2018-04-08T18:22:58.824Z,21.67
2018-04-08T18:25:26.960Z,21.64
2018-04-08T18:27:55.110Z,21.56
2018-04-08T18:30:23.236Z,21.51
2018-04-08T18:32:51.375Z,21.42
2018-04-08T18:35:19.522Z,21.33
2018-04-08T18:37:47.625Z,21.28
2018-04-08T18:40:15.748Z,21.23
2018-04-08T18:42:43.868Z,21.17
2018-04-08T18:45:11.997Z,21.11
2018-04-08T18:47:40.130Z,21.06
2018-04-08T18:50:08.247Z,20.96
2018-04-08T18:52:36.405Z,20.84
2018-04-08T18:55:08.256Z,20.78
2018-04-08T18:57:36.707Z,20.71
2018-04-08T19:00:05.000Z,20.70
2018-04-08T19:02:33.403Z,20.71
2018-04-08T19:05:01.583Z,20.75
2018-04-08T19:07:29.703Z,20.65
2018-04-08T19:09:57.835Z,20.58
2018-04-08T19:12:25.974Z,20.51
2018-04-08T19:14:59.651Z,20.46
2018-04-08T19:17:33.620Z,20.44
2018-04-08T19:20:01.761Z,20.35
2018-04-08T19:22:29.921Z,20.33
2018-04-08T19:24:58.042Z,20.29
2018-04-08T19:27:34.883Z,20.27
2018-04-08T19:30:03.022Z,20.13
2018-04-08T19:32:31.164Z,20.08
2018-04-08T19:34:59.291Z,20.27
2018-04-08T19:37:27.407Z,20.45
2018-04-08T19:39:55.557Z,20.48
2018-04-08T19:42:23.668Z,20.45
2018-04-08T19:44:52.654Z,20.31
2018-04-08T19:47:21.025Z,20.00
2018-04-08T19:49:49.156Z,19.84
2018-04-08T19:52:17.310Z,19.71
2018-04-08T19:54:48.498Z,19.61
2018-04-08T19:57:16.630Z,19.60
2018-04-08T19:59:48.118Z,19.59
2018-04-08T20:02:16.240Z,19.56
2018-04-08T20:04:44.364Z,19.46
2018-04-08T20:07:12.483Z,19.45
2018-04-08T20:09:40.611Z,19.43
2018-04-08T20:12:08.770Z,19.37
2018-04-08T20:14:36.884Z,19.32
2018-04-08T20:17:05.032Z,19.29
2018-04-08T20:19:33.173Z,19.24
2018-04-08T20:22:01.298Z,19.16
2018-04-08T20:24:29.436Z,19.11
2018-04-08T20:26:57.588Z,19.12
2018-04-08T20:29:25.766Z,19.05
2018-04-08T20:31:57.145Z,18.98
2018-04-08T20:34:25.273Z,18.92
2018-04-08T20:36:53.410Z,18.86
2018-04-08T20:39:21.566Z,18.80
2018-04-08T20:41:49.698Z,18.80
2018-04-08T20:44:17.830Z,18.76
2018-04-08T20:46:45.949Z,18.70
2018-04-08T20:49:14.112Z,18.64
2018-04-08T20:51:42.230Z,18.65
2018-04-08T20:54:10.410Z,18.61
2018-04-08T20:56:38.533Z,18.58
2018-04-08T20:59:06.677Z,18.51
2018-04-08T21:01:35.145Z,18.47
2018-04-08T21:04:03.276Z,18.43
2018-04-08T21:06:31.447Z,18.43
2018-04-08T21:08:59.586Z,18.39
2018-04-08T21:11:27.756Z,18.37
2018-04-08T21:13:55.901Z,18.33
2018-04-08T21:16:24.029Z,18.34
2018-04-08T21:18:52.163Z,18.23
2018-04-08T21:21:20.292Z,18.18
2018-04-08T21:23:48.513Z,18.24
2018-04-08T21:26:16.635Z,18.20
2018-04-08T21:28:44.775Z,18.17
2018-04-08T21:31:12.940Z,18.16
2018-04-08T21:33:41.167Z,18.03
2018-04-08T21:36:09.305Z,18.01
2018-04-08T21:38:37.446Z,18.06
2018-04-08T21:41:05.588Z,18.09
2018-04-08T21:43:33.768Z,18.06
2018-04-08T21:46:01.874Z,18.06
2018-04-08T21:48:30.008Z,17.99
2018-04-08T21:50:58.143Z,17.94
2018-04-08T21:53:26.260Z,17.89
2018-04-08T21:55:54.554Z,17.86
2018-04-08T21:58:22.714Z,17.80
2018-04-08T22:00:50.804Z,17.76
2018-04-08T22:03:18.962Z,17.66
2018-04-08T22:05:47.066Z,17.63
2018-04-08T22:08:15.206Z,17.63
2018-04-08T22:10:43.355Z,17.57
2018-04-08T22:13:11.473Z,17.58
2018-04-08T22:15:39.612Z,17.54
2018-04-08T22:18:07.750Z,17.52
2018-04-08T22:20:35.869Z,17.48
2018-04-08T22:23:03.981Z,17.45
2018-04-08T22:25:32.197Z,17.44
2018-04-08T22:28:00.379Z,17.42
2018-04-08T22:30:29.285Z,17.38
2018-04-08T22:32:57.427Z,17.38
2018-04-08T22:35:25.580Z,17.31
2018-04-08T22:37:53.736Z,17.26
2018-04-08T22:40:21.890Z,17.21
2018-04-08T22:42:50.001Z,17.20
2018-04-08T22:45:18.152Z,17.17
2018-04-08T22:47:46.481Z,17.13
2018-04-08T22:50:14.612Z,17.15
2018-04-08T22:52:42.758Z,17.12
2018-04-08T22:55:10.896Z,17.09
2018-04-08T22:57:39.047Z,17.05
2018-04-08T23:00:07.247Z,17.00
2018-04-08T23:02:35.382Z,16.98
2018-04-08T23:05:03.518Z,16.95
2018-04-08T23:07:31.658Z,16.90
2018-04-08T23:09:59.777Z,16.89
2018-04-08T23:12:27.888Z,16.84
2018-04-08T23:14:56.010Z,16.81
2018-04-08T23:17:24.162Z,16.78
2018-04-08T23:19:52.295Z,16.74
2018-04-08T23:22:20.462Z,16.76
2018-04-08T23:24:48.580Z,16.76
2018-04-08T23:27:16.698Z,16.80
2018-04-08T23:29:44.821Z,16.76
2018-04-08T23:32:12.971Z,16.72
2018-04-08T23:34:41.068Z,16.76
2018-04-08T23:37:09.191Z,16.75
2018-04-08T23:39:37.338Z,16.69
2018-04-08T23:42:05.475Z,16.66
2018-04-08T23:44:33.605Z,16.62
2018-04-08T23:47:01.766Z,16.63
2018-04-08T23:49:29.905Z,16.62
2018-04-08T23:51:58.052Z,16.57
2018-04-08T23:54:26.214Z,16.56
2018-04-08T23:56:54.350Z,16.53
2018-04-08T23:59:22.508Z,16.55
